Saint Paul, Texas
Current Conditions -  °F | °C
As of 1:15 PM on Friday 21 Nov 2014 (Local Time) from KF46 Reporting Station
Overcast Overcast  
Wind Chill: 65°   Ceiling: 1000
Heat Index: 65°   Visibility: 10mi
Dew Point: 61°   Wind: 6mph
Humidity: 87%   Direction: 150°SSE
Pressure: 30.07"   Gusts: NA
Location:  33.0138°N, 96.5409°W
Report Text: KF46 211915Z AUTO 15005KT 10SM OVC010 18/16 A3007 RMK AO2 T01830161
Loading
Personal Weather Stations






























Interactive Weather Map New forecast layout! Learn more

10-Day Weather Forecast

Advertisements
Track Severe Weather on mobile